Flight Track Log - Related Links

Times and Time Zones

All times are in EDT time to prevent confusion due to time zone crossing. See the N662US flight status page for this flight to view local times or setup timezone preferences in your user account.

Time Position Orientation Groundspeed Altitude Reporting Facility
EDT Latitude Longitude Course Direction KTS MPH feet Rate Location/Type
Thu 02:23:09 PM 40.6420 -73.8240 300° West 178 205 300  Level FlightAware ADS-B
Thu 02:23:24 PM 40.6450 -73.8410 283° West 188 216 600 900 Climbing FlightAware ADS-B
Thu 02:23:29 PM 40.6450 -73.8420 270° West 189 217 600 1,200 Level FlightAware ADS-B
Thu 02:23:54 PM 40.6340 -73.8690 242° Southwest 204 235 1,200 1,560 Climbing FlightAware ADS-B
Thu 02:24:19 PM 40.6120 -73.8840 207° Southwest 217 250 1,900 1,636 Climbing FlightAware ADS-B
Thu 02:24:49 PM 40.5860 -73.8650 151° Southeast 220 253 2,700 1,600 Climbing FlightAware ADS-B
Thu 02:25:04 PM 40.5810 -73.8440 107° East 223 257 3,100 1,440 Climbing FlightAware ADS-B
Thu 02:25:14 PM 40.5830 -73.8300 79° East 227 261 3,300 720 Climbing FlightAware ADS-B
Thu 02:25:29 PM 40.5890 -73.8130 65° Northeast 240 276 3,400 1,000 Climbing FlightAware ADS-B
Thu 02:25:44 PM 40.5970 -73.7950 60° Northeast 241 277 3,800 1,067 Climbing FlightAware ADS-B
Thu 02:26:14 PM 40.6160 -73.7560 57° Northeast 258 297 4,200 1,091 Climbing FlightAware ADS-B
Thu 02:26:39 PM 40.6340 -73.7210 56° Northeast 268 308 4,800 1,500 Climbing FlightAware ADS-B
Thu 02:26:54 PM 40.6440 -73.6990 59° Northeast 275 316 5,200 1,333 Climbing FlightAware ADS-B
Thu 02:27:24 PM 40.6640 -73.6530 60° Northeast 292 336 5,800 1,650 Climbing FlightAware ADS-B
Thu 02:27:34 PM 40.6700 -73.6380 62° Northeast 286 329 6,300 1,350 Climbing FlightAware ADS-B
Thu 02:28:04 PM 40.6900 -73.5940 59° Northeast 307 353 6,700 800 Climbing FlightAware ADS-B
Thu 02:28:19 PM 40.7070 -73.5720 44° Northeast 313 360 6,900 1,400 Climbing FlightAware ADS-B
Thu 02:28:34 PM 40.7240 -73.5590 30° Northeast 309 356 7,400 1,920 Climbing FlightAware ADS-B
Thu 02:28:44 PM 40.7400 -73.5550 11° North 306 352 7,700 1,650 Climbing FlightAware ADS-B
Thu 02:29:14 PM 40.7830 -73.5600 355° North 305 351 8,500 1,745 Climbing FlightAware ADS-B
Thu 02:29:39 PM 40.8130 -73.5810 332° Northwest 306 352 9,300 1,714 Climbing FlightAware ADS-B
Thu 02:30:24 PM 40.8690 -73.6210 332° Northwest 319 367 10,500 1,271 Climbing FlightAware ADS-B
Thu 02:31:04 PM 40.9190 -73.6620 328° Northwest 337 388 11,100 988 Climbing FlightAware ADS-B
Thu 02:31:49 PM 40.9730 -73.7340 315° West 365 420 11,900 1,059 Climbing FlightAware ADS-B
Thu 02:32:29 PM 41.0200 -73.8020 313° West 386 444 12,600 1,519 Climbing FlightAware ADS-B
Thu 02:33:08 PM 41.0708 -73.8768 312° West 395 455 13,900 2,077 Climbing FlightAware ADS-B
Thu 02:33:21 PM 41.0868 -73.9004 312° West 397 457 14,400 1,733 Climbing FlightAware ADS-B
Thu 02:33:53 PM 41.1259 -73.9578 312° West 409 471 15,200 1,781 Climbing FlightAware ADS-B
Thu 02:34:25 PM 41.1665 -74.0169 312° West 411 473 16,300 1,406 Climbing FlightAware ADS-B
Thu 02:34:57 PM 41.2078 -74.0782 312° West 421 484 16,700 387 Climbing FlightAware ADS-B
Thu 02:35:27 PM 41.2485 -74.1372 313° West 420 483 16,700  Level FlightAware ADS-B
Thu 02:35:59 PM 41.2892 -74.1972 312° West 414 476 16,700 82 Level FlightAware ADS-B
Thu 02:36:40 PM 41.3402 -74.2731 312° West 409 471 16,800  Climbing FlightAware ADS-B
Thu 02:37:14 PM 41.3829 -74.3369 312° West 405 466 16,700  Descending FlightAware ADS-B
Thu 02:37:56 PM 41.4264 -74.4244 304° West 405 466 16,800 1,081 Climbing FlightAware ADS-B
Thu 02:39:05 PM 41.4916 -74.5751 300° West 415 478 18,700 1,680 Climbing FlightAware ADS-B
Thu 02:39:36 PM 41.5218 -74.6452 300° West 418 481 19,600 1,545 Climbing FlightAware ADS-B
Thu 02:40:11 PM 41.5557 -74.7239 300° West 421 484 20,400 1,322 Climbing FlightAware ADS-B
Thu 02:40:35 PM 41.5795 -74.7773 301° West 430 495 20,900 1,571 Climbing FlightAware ADS-B
Thu 02:41:35 PM 41.6424 -74.9123 302° West 427 491 22,600 1,515 Climbing FlightAware ADS-B
Thu 02:42:14 PM 41.6790 -74.9920 302° West 430 495 23,400 1,030 Climbing FlightAware ADS-B
Thu 02:43:14 PM 41.7420 -75.1270 302° West 430 495 24,300 1,342 Climbing FlightAware ADS-B
Thu 02:43:30 PM 41.7655 -75.1736 304° West 436 502 25,100 880 Climbing FlightAware ADS-B
Thu 02:44:29 PM 41.8220 -75.2940 302° West 440 506 25,400 826 Climbing FlightAware ADS-B
Thu 02:45:19 PM 41.8800 -75.4110 304° West 450 518 26,600 1,140 Climbing FlightAware ADS-B
Thu 02:46:09 PM 41.9590 -75.5150 316° Northwest 487 560 27,300 733 Climbing FlightAware ADS-B
Thu 02:46:49 PM 42.0440 -75.5680 335° Northwest 505 581 27,700 282 Climbing FlightAware ADS-B
Thu 02:47:34 PM 42.1280 -75.6180 336° Northwest 505 581 27,700  Level FlightAware ADS-B
Thu 02:48:14 PM 42.2000 -75.6620 336° Northwest 505 581 27,700 1,624 Level FlightAware ADS-B
Thu 02:48:59 PM 42.3280 -75.7290 339° North 512 589 30,000 1,453 Climbing FlightAware ADS-B
Thu 02:49:49 PM 42.4410 -75.7940 337° Northwest 512 589 30,000  Level FlightAware ADS-B
Thu 02:50:29 PM 42.5280 -75.8440 337° Northwest 511 588 30,000  Level FlightAware ADS-B
Thu 02:51:09 PM 42.6150 -75.8940 337° Northwest 510 587 30,000  Level FlightAware ADS-B
Thu 02:51:54 PM 42.7140 -75.9520 337° Northwest 509 586 30,000  Level FlightAware ADS-B
Thu 02:52:34 PM 42.8020 -76.0030 337° Northwest 509 586 30,000 75 Level FlightAware ADS-B
Thu 02:53:14 PM 42.9020 -76.0490 341° North 510 587 30,100 71 Climbing FlightAware ADS-B
Thu 02:53:59 PM 43.0020 -76.1070 337° Northwest 508 585 30,100  Level FlightAware ADS-B
Thu 02:54:39 PM 43.0850 -76.1550 337° Northwest 504 580 30,100  Level FlightAware ADS-B
Thu 02:55:24 PM 43.1810 -76.2100 337° Northwest 504 580 30,100  Level FlightAware ADS-B
Thu 02:56:04 PM 43.2680 -76.2560 339° North 502 578 30,100  Level FlightAware ADS-B
Thu 02:56:49 PM 43.3660 -76.3130 337° Northwest 503 579 30,100  Level FlightAware ADS-B
Thu 02:57:29 PM 43.4520 -76.3620 338° Northwest 503 579 30,100  Level FlightAware ADS-B
Thu 02:58:09 PM 43.5390 -76.4110 338° Northwest 504 580 30,100  Level FlightAware ADS-B
Thu 02:58:49 PM 43.6250 -76.4580 338° Northwest 504 580 30,100  Level FlightAware ADS-B
Thu 02:59:34 PM 43.7220 -76.5120 338° Northwest 503 579 30,100  Level FlightAware ADS-B
Thu 03:00:14 PM 43.8090 -76.5610 338° Northwest 504 580 30,100  Level FlightAware ADS-B
Thu 03:00:59 PM 43.9070 -76.6160 338° Northwest 501 577 30,100  Level FlightAware ADS-B
Thu 03:01:39 PM 43.9890 -76.6600 339° North 502 578 30,100  Level FlightAware ADS-B
Thu 03:02:19 PM 44.0770 -76.7070 339° North 501 577 30,100  Level FlightAware ADS-B
Thu 03:03:04 PM 44.1810 -76.7620 339° North 499 574 30,100  Level FlightAware ADS-B
Thu 03:03:44 PM 44.2610 -76.8060 339° North 497 572 30,100  Level FlightAware ADS-B
Thu 03:04:29 PM 44.3610 -76.8610 339° North 498 573 30,100  Level FlightAware ADS-B
Thu 03:05:09 PM 44.4430 -76.9060 339° North 499 574 30,100  Level FlightAware ADS-B
Thu 03:05:54 PM 44.5460 -76.9620 339° North 499 574 30,100  Level FlightAware ADS-B
Thu 03:06:34 PM 44.6190 -77.0030 338° Northwest 500 575 30,100  Level FlightAware ADS-B
Thu 03:07:14 PM 44.7080 -77.0520 339° North 501 577 30,100  Level FlightAware ADS-B
Thu 03:07:59 PM 44.8130 -77.1100 339° North 500 575 30,100  Level FlightAware ADS-B
Thu 03:08:39 PM 44.9000 -77.1590 338° Northwest 501 577 30,100  Level FlightAware ADS-B
Thu 03:09:19 PM 44.9880 -77.2080 339° North 501 577 30,100  Level FlightAware ADS-B
Thu 03:10:04 PM 45.0810 -77.2600 338° Northwest 501 577 30,100  Level FlightAware ADS-B
Thu 03:10:44 PM 45.1700 -77.3100 338° Northwest 501 577 30,100  Level FlightAware ADS-B
Thu 03:11:29 PM 45.2660 -77.3640 338° Northwest 500 575 30,100  Level FlightAware ADS-B
Thu 03:12:09 PM 45.3500 -77.4130 338° Northwest 499 574 30,100  Level FlightAware ADS-B
Thu 03:12:54 PM 45.4460 -77.4670 338° Northwest 499 574 30,100  Level FlightAware ADS-B
Thu 03:13:34 PM 45.5350 -77.5190 338° Northwest 499 574 30,100  Level FlightAware ADS-B
Thu 03:14:14 PM 45.6170 -77.5660 338° Northwest 499 574 30,100  Level FlightAware ADS-B
Thu 03:14:59 PM 45.7180 -77.6210 339° North 502 578 30,100  Level FlightAware ADS-B
Thu 03:15:39 PM 45.8050 -77.6650 341° North 501 577 30,100  Level FlightAware ADS-B
Thu 03:16:19 PM 45.8840 -77.7060 340° North 502 578 30,100  Level FlightAware ADS-B
Thu 03:17:04 PM 45.9890 -77.7600 340° North 501 577 30,100  Level FlightAware ADS-B
Thu 03:17:44 PM 46.0770 -77.8060 340° North 501 577 30,100  Level FlightAware ADS-B
Thu 03:18:24 PM 46.1630 -77.8510 340° North 502 578 30,100  Level FlightAware ADS-B
Thu 03:19:24 PM 46.2880 -77.9150 341° North 500 575 30,100  Level FlightAware ADS-B
Thu 03:19:59 PM 46.3620 -77.9540 340° North 501 577 30,100  Level FlightAware ADS-B
Thu 03:20:49 PM 46.4550 -78.0030 340° North 501 577 30,100  Level FlightAware ADS-B
Thu 03:21:29 PM 46.5290 -78.0420 340° North 501 577 30,100  Level FlightAware ADS-B
Thu 03:22:09 PM 46.6030 -78.0810 340° North 501 577 30,100  Level FlightAware ADS-B
Thu 03:22:49 PM 46.6770 -78.1200 340° North 501 577 30,100  Level FlightAware ADS-B
Thu 03:23:29 PM 46.7510 -78.1600 340° North 501 577 30,100  Level FlightAware ADS-B
Thu 03:24:19 PM 46.8430 -78.2090 340° North 501 577 30,100  Level FlightAware ADS-B
Thu 03:24:59 PM 46.9180 -78.2480 340° North 501 577 30,100  Level FlightAware ADS-B
Thu 03:25:39 PM 46.9920 -78.2880 340° North 501 577 30,100  Level FlightAware ADS-B
Thu 03:26:19 PM 47.0660 -78.3270 340° North 501 577 30,100  Level FlightAware ADS-B
Thu 03:27:09 PM 47.1580 -78.3770 340° North 501 577 30,100  Level FlightAware ADS-B
Thu 03:27:49 PM 47.2320 -78.4170 340° North 501 577 30,100  Level FlightAware ADS-B
Thu 03:28:29 PM 47.3060 -78.4560 340° North 501 577 30,100  Level FlightAware ADS-B
Thu 03:29:09 PM 47.3800 -78.4960 340° North 501 577 30,100  Level FlightAware ADS-B
Thu 03:29:37 PM 47.5833 -78.6333 340° North 490 564 30,100  Level Montreal Center
Thu 03:30:37 PM 47.7167 -78.6833 346° North 490 564 30,100  Level Montreal Center
Thu 03:31:37 PM 47.8500 -78.7667 337° Northwest 490 564 30,100  Level Montreal Center
Thu 03:32:37 PM 47.9667 -78.8500 334° Northwest 490 564 30,100  Level Montreal Center
Thu 03:33:37 PM 48.1000 -78.9167 342° North 490 564 30,100  Level Montreal Center
Thu 03:34:37 PM 48.2333 -79.0000 337° Northwest 490 564 30,100  Level Montreal Center
Thu 03:35:37 PM 48.3667 -79.0500 346° North 490 564 30,100  Level Montreal Center
Thu 03:36:37 PM 48.5000 -79.1167 342° North 490 564 30,100  Level Montreal Center
Thu 03:37:37 PM 48.6167 -79.2000 335° Northwest 490 564 30,100  Level Montreal Center
Thu 03:38:37 PM 48.7500 -79.2500 346° North 490 564 30,100  Level Montreal Center
Thu 03:39:37 PM 48.8833 -79.3167 342° North 490 564 30,100  Level Montreal Center
Thu 03:40:37 PM 49.0167 -79.3833 342° North 480 552 30,100  Level Montreal Center
Thu 03:41:37 PM 49.1333 -79.4333 344° North 480 552 30,100  Level Montreal Center
Thu 03:42:37 PM 49.2667 -79.5167 338° Northwest 480 552 30,100  Level Montreal Center
Thu 03:43:37 PM 49.4000 -79.5833 342° North 490 564 30,100  Level Montreal Center
Thu 03:44:37 PM 49.5167 -79.6500 340° North 480 552 30,100  Level Montreal Center
Thu 03:45:37 PM 49.6500 -79.7000 346° North 480 552 30,100  Level Montreal Center
Thu 03:46:37 PM 49.7833 -79.8000 334° Northwest 480 552 30,100  Level Montreal Center
Thu 03:47:37 PM 49.9167 -79.8500 346° North 470 541 30,100  Level Montreal Center
Thu 03:48:37 PM 50.0167 -79.9167 337° Northwest 480 552 30,100  Level Montreal Center
Thu 03:49:37 PM 50.1500 -79.9833 342° North 480 552 30,100  Level Montreal Center
Thu 03:50:37 PM 50.2667 -80.0500 340° North 470 541 30,100  Level Montreal Center
Thu 03:51:37 PM 50.4000 -80.1333 338° Northwest 470 541 30,100  Level Montreal Center
Thu 03:52:37 PM 50.5333 -80.2000 342° North 470 541 30,100  Level Montreal Center
Thu 03:53:37 PM 50.6500 -80.2667 340° North 480 552 30,100  Level Montreal Center
Thu 03:54:37 PM 50.7833 -80.3333 342° North 480 552 30,100  Level Montreal Center
Thu 03:55:37 PM 50.9167 -80.4167 338° Northwest 470 541 30,100  Level Montreal Center
Thu 03:56:37 PM 51.0333 -80.4833 340° North 470 541 30,100  Level Montreal Center
Thu 03:57:37 PM 51.1500 -80.5500 340° North 470 541 30,100  Level Montreal Center
Thu 03:58:37 PM 51.2833 -80.6167 343° North 470 541 30,100  Level Montreal Center
Thu 03:59:37 PM 51.3833 -80.7333 324° Northwest 460 529 30,100  Level Montreal Center
Thu 04:00:37 PM 51.5000 -80.8333 332° Northwest 460 529 30,100  Level Montreal Center
Thu 04:01:37 PM 51.6000 -80.9500 324° Northwest 460 529 30,100  Level Montreal Center
Thu 04:02:37 PM 51.7167 -81.0667 328° Northwest 460 529 30,100  Level Montreal Center
Thu 04:03:37 PM 51.8333 -81.1667 332° Northwest 460 529 30,100  Level Montreal Center
Thu 04:04:37 PM 51.9333 -81.3000 321° Northwest 460 529 30,100  Level Montreal Center
Thu 04:06:37 PM 52.1000 -81.4000 340° North 460 529 30,100  Level Edmonton Center
Thu 04:07:37 PM 52.2167 -81.5000 332° Northwest 460 529 30,100  Level Edmonton Center
Thu 04:08:37 PM 52.3333 -81.6167 329° Northwest 460 529 30,100 300 Level Edmonton Center
Thu 04:09:37 PM 52.4167 -81.7333 320° Northwest 460 529 30,700 500 Climbing Edmonton Center
Thu 04:10:37 PM 52.5333 -81.8333 332° Northwest 470 541 31,100 200 Climbing Edmonton Center
Thu 04:11:37 PM 52.6500 -81.9500 329° Northwest 460 529 31,100  Level Edmonton Center
Thu 04:12:37 PM 52.7667 -82.0833 325° Northwest 460 529 31,100  Level Edmonton Center
Thu 04:13:37 PM 52.8667 -82.2000 325° Northwest 460 529 31,100  Level Edmonton Center
Thu 04:14:37 PM 52.9667 -82.3167 325° Northwest 470 541 31,100  Level Edmonton Center
Thu 04:15:37 PM 53.0833 -82.4333 329° Northwest 460 529 31,100  Level Edmonton Center
Thu 04:16:37 PM 53.2000 -82.5500 329° Northwest 470 541 31,100  Level Edmonton Center
Thu 04:17:37 PM 53.2833 -82.6667 320° Northwest 470 541 31,100  Level Edmonton Center
Thu 04:18:37 PM 53.4000 -82.7833 329° Northwest 470 541 31,100  Level Edmonton Center
Thu 04:19:37 PM 53.5167 -82.9000 329° Northwest 470 541 31,100  Level Edmonton Center
Thu 04:20:37 PM 53.6000 -83.0167 320° Northwest 460 529 31,100  Level Edmonton Center
Thu 04:21:37 PM 53.7167 -83.1667 323° Northwest 460 529 31,100  Level Edmonton Center
Thu 04:22:37 PM 53.8333 -83.2833 329° Northwest 460 529 31,100  Level Edmonton Center
Thu 04:23:37 PM 53.9333 -83.4000 326° Northwest 460 529 31,100  Level Edmonton Center
Thu 04:24:37 PM 54.0333 -83.5000 330° Northwest 450 518 31,100  Level Edmonton Center
Thu 04:25:37 PM 54.1500 -83.6500 323° Northwest 470 541 31,100  Level Edmonton Center
Thu 04:26:37 PM 54.2667 -83.7667 330° Northwest 460 529 31,100  Level Edmonton Center
Thu 04:27:37 PM 54.3500 -83.9000 317° Northwest 450 518 31,100  Level Edmonton Center
Thu 04:28:37 PM 54.4667 -84.0167 330° Northwest 460 529 31,100  Level Edmonton Center
Thu 04:29:37 PM 54.5667 -84.1500 322° Northwest 460 529 31,100  Level Edmonton Center
Thu 04:30:37 PM 54.6667 -84.2333 334° Northwest 450 518 31,100  Level Edmonton Center
Thu 04:31:37 PM 54.7833 -84.3833 323° Northwest 470 541 31,100  Level Edmonton Center
Thu 04:32:37 PM 54.8833 -84.5167 323° Northwest 450 518 31,100  Level Edmonton Center
Thu 04:33:37 PM 54.9833 -84.6500 323° Northwest 460 529 31,100  Level Edmonton Center
Thu 04:34:37 PM 55.1000 -84.7667 330° Northwest 450 518 31,100  Level Edmonton Center
Thu 04:35:37 PM 55.1833 -84.9000 318° Northwest 450 518 31,100  Level Edmonton Center
Thu 04:36:37 PM 55.2833 -85.0333 323° Northwest 450 518 31,100  Level Edmonton Center
Thu 04:37:37 PM 55.3833 -85.1667 323° Northwest 450 518 31,100  Level Edmonton Center
Thu 04:38:37 PM 55.5000 -85.3333 321° Northwest 460 529 31,100  Level Edmonton Center
Thu 04:39:37 PM 55.5833 -85.4667 318° Northwest 450 518 31,100  Level Edmonton Center
Thu 04:40:37 PM 55.7000 -85.6167 324° Northwest 460 529 31,100  Level Edmonton Center
Thu 04:41:37 PM 55.8000 -85.7667 320° Northwest 450 518 31,100  Level Edmonton Center
Thu 04:42:37 PM 55.8833 -85.9000 318° Northwest 450 518 31,100  Level Edmonton Center
Thu 04:43:37 PM 55.9833 -86.0333 323° Northwest 460 529 31,100  Level Edmonton Center
Thu 04:44:37 PM 56.0667 -86.1833 315° West 450 518 31,100  Level Edmonton Center
Thu 04:45:37 PM 56.1833 -86.3333 324° Northwest 450 518 31,100  Level Edmonton Center
Thu 04:46:37 PM 56.2833 -86.4833 320° Northwest 450 518 31,100  Level Edmonton Center
Thu 04:47:37 PM 56.3667 -86.6333 315° West 460 529 31,100  Level Edmonton Center
Thu 04:48:37 PM 56.4833 -86.7833 325° Northwest 460 529 31,100  Level Edmonton Center
Thu 04:49:37 PM 56.5667 -86.9333 315° West 460 529 31,100  Level Edmonton Center
Thu 04:51:00 PM 56.6848 -87.1873 310° West  Level FlightAware Approximate
Thu 04:51:37 PM 56.7833 -87.2500 310° West 460 529 31,100  Level Edmonton Center
Thu 04:53:00 PM 56.8993 -87.5088 309° West  Level FlightAware Approximate
Thu 05:00:00 PM 57.4779 -88.8430 309° West  Level FlightAware Approximate
Thu 05:01:00 PM 57.5593 -89.0371 308° West  Level FlightAware Approximate
Thu 05:02:00 PM 57.6405 -89.2320 308° West  Level FlightAware Approximate
Thu 05:03:00 PM 57.7214 -89.4277 308° West  Level FlightAware Approximate
Thu 05:04:00 PM 57.8020 -89.6244 308° West  Level FlightAware Approximate
Thu 05:05:00 PM 57.8823 -89.8220 307° West  Level FlightAware Approximate
Thu 05:06:00 PM 57.9622 -90.0204 307° West  Level FlightAware Approximate
Thu 05:07:00 PM 58.0419 -90.2197 307° West  Level FlightAware Approximate
Thu 05:08:00 PM 58.1212 -90.4199 307° West  Level FlightAware Approximate
Thu 05:09:00 PM 58.2002 -90.6209 307° West  Level FlightAware Approximate
Thu 05:10:00 PM 58.2789 -90.8229 307° West  Level FlightAware Approximate
Thu 05:11:00 PM 58.3573 -91.0258 306° West  Level FlightAware Approximate
Thu 05:12:00 PM 58.4354 -91.2296 306° West  Level FlightAware Approximate
Thu 05:13:00 PM 58.5131 -91.4343 306° West  Level FlightAware Approximate
Thu 05:14:00 PM 58.5905 -91.6398 306° West  Level FlightAware Approximate
Thu 05:15:00 PM 58.6676 -91.8464 306° West  Level FlightAware Approximate
Thu 05:16:00 PM 58.7444 -92.0538 306° West  Level FlightAware Approximate
Thu 05:17:00 PM 58.8208 -92.2621 305° West  Level FlightAware Approximate
Thu 05:18:00 PM 58.8969 -92.4713 305° West  Level FlightAware Approximate
Thu 05:19:00 PM 58.9726 -92.6815 305° West  Level FlightAware Approximate
Thu 05:20:00 PM 59.0480 -92.8926 305° West  Level FlightAware Approximate
Thu 05:21:00 PM 59.1231 -93.1046 305° West  Level FlightAware Approximate
Thu 05:22:00 PM 59.1978 -93.3176 304° West  Level FlightAware Approximate
Thu 05:23:00 PM 59.2721 -93.5314 304° West  Level FlightAware Approximate
Thu 05:24:00 PM 59.3461 -93.7462 304° West  Level FlightAware Approximate
Thu 05:25:00 PM 59.4198 -93.9620 304° West  Level FlightAware Approximate
Thu 05:26:00 PM 59.4931 -94.1787 304° West  Level FlightAware Approximate
Thu 05:27:00 PM 59.5660 -94.3963 304° West  Level FlightAware Approximate
Thu 05:28:00 PM 59.6386 -94.6149 303° West  Level FlightAware Approximate
Thu 05:29:00 PM 59.7178 -94.8256 309° West  Level FlightAware Approximate
Thu 05:30:00 PM 59.8005 -95.0304 309° West  Level FlightAware Approximate
Thu 05:31:00 PM 59.8830 -95.2363 309° West  Level FlightAware Approximate
Thu 05:32:00 PM 59.9651 -95.4432 308° West  Level FlightAware Approximate
Thu 05:33:00 PM 60.0470 -95.6511 308° West  Level FlightAware Approximate
Thu 05:34:00 PM 60.1285 -95.8601 308° West  Level FlightAware Approximate
Thu 05:35:00 PM 60.2096 -96.0701 308° West  Level FlightAware Approximate
Thu 05:36:00 PM 60.2904 -96.2811 308° West  Level FlightAware Approximate
Thu 05:37:00 PM 60.3700 -96.4946 307° West  Level FlightAware Approximate
Thu 05:38:00 PM 60.4488 -96.7097 307° West  Level FlightAware Approximate
Thu 05:39:00 PM 60.5272 -96.9260 306° West  Level FlightAware Approximate
Thu 05:40:00 PM 60.6053 -97.1433 306° West  Level FlightAware Approximate
Thu 05:41:00 PM 60.6830 -97.3616 306° West  Level FlightAware Approximate
Thu 05:42:00 PM 60.7604 -97.5810 306° West  Level FlightAware Approximate
Thu 05:43:00 PM 60.8374 -97.8014 306° West  Level FlightAware Approximate
Thu 05:44:00 PM 60.9141 -98.0229 306° West  Level FlightAware Approximate
Thu 05:45:00 PM 60.9903 -98.2455 305° West  Level FlightAware Approximate
Thu 05:46:00 PM 61.0663 -98.4691 305° West  Level FlightAware Approximate
Thu 05:47:00 PM 61.1418 -98.6938 305° West  Level FlightAware Approximate
Thu 05:48:00 PM 61.2170 -98.9196 305° West  Level FlightAware Approximate
Thu 05:49:00 PM 61.2918 -99.1465 305° West  Level FlightAware Approximate
Thu 05:50:00 PM 61.3662 -99.3744 304° West  Level FlightAware Approximate
Thu 05:51:00 PM 61.4402 -99.6034 304° West  Level FlightAware Approximate
Thu 05:52:00 PM 61.5139 -99.8336 304° West  Level FlightAware Approximate
Thu 05:53:00 PM 61.5872 -100.0647 304° West  Level FlightAware Approximate
Thu 05:54:00 PM 61.6603 -100.2967 304° West  Level FlightAware Approximate
Thu 05:55:00 PM 61.7329 -100.5298 303° West  Level FlightAware Approximate
Thu 05:56:00 PM 61.8052 -100.7641 303° West  Level FlightAware Approximate
Thu 05:57:00 PM 61.8771 -100.9994 303° West  Level FlightAware Approximate
Thu 05:58:00 PM 61.9485 -101.2358 303° West  Level FlightAware Approximate
Thu 05:59:00 PM 62.0196 -101.4733 303° West  Level FlightAware Approximate
Thu 06:00:00 PM 62.0902 -101.7119 302° West  Level FlightAware Approximate
Thu 06:01:00 PM 62.1605 -101.9517 302° West  Level FlightAware Approximate
Thu 06:02:00 PM 62.2303 -102.1925 302° West  Level FlightAware Approximate
Thu 06:03:00 PM 62.2997 -102.4345 302° West  Level FlightAware Approximate
Thu 06:04:00 PM 62.3687 -102.6776 302° West  Level FlightAware Approximate
Thu 06:05:00 PM 62.4372 -102.9218 301° West  Level FlightAware Approximate
Thu 06:06:00 PM 62.5054 -103.1671 301° West  Level FlightAware Approximate
Thu 06:07:00 PM 62.5731 -103.4136 301° West  Level FlightAware Approximate
Thu 06:08:00 PM 62.6403 -103.6611 301° West  Level FlightAware Approximate
Thu 06:09:00 PM 62.7072 -103.9098 300° West  Level FlightAware Approximate
Thu 06:10:00 PM 62.7735 -104.1596 300° West  Level FlightAware Approximate
Thu 06:11:00 PM 62.8395 -104.4105 300° West  Level FlightAware Approximate
Thu 06:12:00 PM 62.9050 -104.6626 300° West  Level FlightAware Approximate
Thu 06:13:00 PM 62.9700 -104.9158 300° West  Level FlightAware Approximate
Thu 06:14:00 PM 63.0346 -105.1701 299° West  Level FlightAware Approximate
Thu 06:15:00 PM 63.0987 -105.4255 299° West  Level FlightAware Approximate
Thu 06:16:00 PM 63.1624 -105.6821 299° West  Level FlightAware Approximate
Thu 06:17:00 PM 63.2256 -105.9398 299° West  Level FlightAware Approximate
Thu 06:18:00 PM 63.2883 -106.1986 298° West  Level FlightAware Approximate
Thu 06:19:00 PM 63.3512 -106.4577 299° West  Level FlightAware Approximate
Thu 06:20:00 PM 63.4143 -106.7172 299° West  Level FlightAware Approximate
Thu 06:21:00 PM 63.4769 -106.9779 298° West  Level FlightAware Approximate
Thu 06:22:00 PM 63.5390 -107.2397 298° West  Level FlightAware Approximate
Thu 06:23:00 PM 63.6007 -107.5026 298° West  Level FlightAware Approximate
Thu 06:24:00 PM 63.6618 -107.7667 298° West  Level FlightAware Approximate
Thu 06:25:00 PM 63.7228 -108.0316 298° West  Level FlightAware Approximate
Thu 06:26:00 PM 63.7838 -108.2970 298° West  Level FlightAware Approximate
Thu 06:27:00 PM 63.8443 -108.5636 297° West  Level FlightAware Approximate
Thu 06:28:00 PM 63.9043 -108.8313 297° West  Level FlightAware Approximate
Thu 06:29:00 PM 63.9638 -109.1002 297° West  Level FlightAware Approximate
Thu 06:30:00 PM 64.0228 -109.3701 297° West  Level FlightAware Approximate
Thu 06:31:00 PM 64.0813 -109.6413 296° West  Level FlightAware Approximate
Thu 06:32:00 PM 64.1394 -109.9136 296° West  Level FlightAware Approximate
Thu 06:33:00 PM 64.1969 -110.1870 296° West  Level FlightAware Approximate
Thu 06:34:00 PM 64.2538 -110.4615 296° West  Level FlightAware Approximate
Thu 06:35:00 PM 64.3103 -110.7372 295° West  Level FlightAware Approximate
Thu 06:36:00 PM 64.3662 -111.0139 295° West  Level FlightAware Approximate
Thu 06:37:00 PM 64.4215 -111.2920 294° West  Level FlightAware Approximate
Thu 06:38:00 PM 64.4746 -111.5729 294° West  Level FlightAware Approximate
Thu 06:39:00 PM 64.5272 -111.8548 294° West  Level FlightAware Approximate
Thu 06:39:42 PM 65.1667 -110.0000 293° West 470 541 32,100  Level Edmonton Center
Thu 06:40:00 PM 64.5793 -112.1378 293° West  Level FlightAware Approximate
Thu 06:40:42 PM 65.2167 -110.2500 296° West 460 529 32,100  Level Edmonton Center
Thu 06:41:00 PM 64.6308 -112.4219 293° West  Level FlightAware Approximate
Thu 06:41:42 PM 65.2500 -110.5333 286° West 450 518 32,100  Level Edmonton Center
Thu 06:42:00 PM 64.6817 -112.7071 293° West  Level FlightAware Approximate
Thu 06:42:42 PM 65.2833 -110.8333 285° West 450 518 32,100  Level Edmonton Center
Thu 06:43:00 PM 64.7322 -112.9933 293° West  Level FlightAware Approximate
Thu 06:43:42 PM 65.3500 -111.1333 298° West 440 506 32,100  Level Edmonton Center
Thu 06:44:00 PM 64.7841 -113.2786 293° West  Level FlightAware Approximate
Thu 06:44:42 PM 65.3833 -111.4167 286° West 450 518 32,100  Level Edmonton Center
Thu 06:45:42 PM 65.4167 -111.7167 285° West 450 518 32,100  Level Edmonton Center
Thu 06:46:42 PM 65.4833 -111.9833 301° West 450 518 32,100  Level Edmonton Center
Thu 06:47:42 PM 65.5167 -112.2833 285° West 460 529 32,100  Level Edmonton Center
Thu 06:48:42 PM 65.5500 -112.5833 285° West 450 518 32,100  Level Edmonton Center
Thu 06:49:42 PM 65.6000 -112.8833 292° West 460 529 32,100  Level Edmonton Center
Thu 06:50:42 PM 65.6500 -113.1333 296° West 450 518 32,100  Level Edmonton Center
Thu 06:51:42 PM 65.6833 -113.4333 285° West 450 518 32,100  Level Edmonton Center
Thu 06:52:42 PM 65.7167 -113.7500 284° West 450 518 32,100  Level Edmonton Center
Thu 06:53:42 PM 65.7667 -114.0500 292° West 450 518 32,100  Level Edmonton Center
Thu 06:54:42 PM 65.8000 -114.3167 287° West 440 506 32,100  Level Edmonton Center
Thu 06:55:42 PM 65.8333 -114.6167 285° West 440 506 32,100 27 Level Edmonton Center
Thu 06:57:00 PM 65.8430 -115.0351 273° West  Level FlightAware Approximate
Thu 07:04:00 PM 65.9257 -117.3001 280° West  Level FlightAware Approximate
Thu 07:05:00 PM 65.9457 -117.6199 279° West  Level FlightAware Approximate
Thu 07:06:00 PM 65.9651 -117.9402 279° West  Level FlightAware Approximate
Thu 07:07:00 PM 65.9838 -118.2610 278° West  Level FlightAware Approximate
Thu 07:08:00 PM 66.0019 -118.5823 278° West  Level FlightAware Approximate
Thu 07:09:00 PM 66.0193 -118.9040 278° West  Level FlightAware Approximate
Thu 07:10:00 PM 66.0360 -119.2261 277° West  Level FlightAware Approximate
Thu 07:11:00 PM 66.0520 -119.5487 277° West  Level FlightAware Approximate
Thu 07:12:00 PM 66.0674 -119.8716 277° West  Level FlightAware Approximate
Thu 07:13:00 PM 66.0821 -120.1949 277° West  Level FlightAware Approximate
Thu 07:14:00 PM 66.0961 -120.5186 276° West  Level FlightAware Approximate
Thu 07:15:00 PM 66.1094 -120.8427 276° West  Level FlightAware Approximate
Thu 07:16:00 PM 66.1221 -121.1670 276° West  Level FlightAware Approximate
Thu 07:17:00 PM 66.1340 -121.4917 275° West  Level FlightAware Approximate
Thu 07:18:00 PM 66.1453 -121.8167 275° West  Level FlightAware Approximate
Thu 07:19:00 PM 66.1559 -122.1419 275° West  Level FlightAware Approximate
Thu 07:20:00 PM 66.1659 -122.4675 274° West  Level FlightAware Approximate
Thu 07:21:00 PM 66.1751 -122.7932 274° West  Level FlightAware Approximate
Thu 07:22:00 PM 66.1837 -123.1192 274° West  Level FlightAware Approximate
Thu 07:23:00 PM 66.1915 -123.4454 274° West  Level FlightAware Approximate
Thu 07:24:00 PM 66.1987 -123.7719 273° West  Level FlightAware Approximate
Thu 07:25:00 PM 66.2241 -124.0920 283° West  Level FlightAware Approximate
Thu 07:26:00 PM 66.2532 -124.4114 283° West  Level FlightAware Approximate
Thu 07:27:00 PM 66.2817 -124.7315 283° West  Level FlightAware Approximate
Thu 07:28:00 PM 66.3095 -125.0524 282° West  Level FlightAware Approximate
Thu 07:29:00 PM 66.3366 -125.3739 282° West  Level FlightAware Approximate
Thu 07:30:00 PM 66.3631 -125.6961 282° West  Level FlightAware Approximate
Thu 07:31:00 PM 66.3889 -126.0190 281° West  Level FlightAware Approximate
Thu 07:32:00 PM 66.4141 -126.3425 281° West  Level FlightAware Approximate
Thu 07:33:00 PM 66.4385 -126.6667 281° West  Level FlightAware Approximate
Thu 07:34:00 PM 66.4623 -126.9915 281° West  Level FlightAware Approximate
Thu 07:35:00 PM 66.4854 -127.3170 280° West  Level FlightAware Approximate
Thu 07:36:00 PM 66.5079 -127.6430 280° West  Level FlightAware Approximate
Thu 07:37:00 PM 66.5296 -127.9696 280° West  Level FlightAware Approximate
Thu 07:38:00 PM 66.5507 -128.2968 279° West  Level FlightAware Approximate
Thu 07:39:00 PM 66.5711 -128.6245 279° West  Level FlightAware Approximate
Thu 07:40:00 PM 66.5908 -128.9527 279° West  Level FlightAware Approximate
Thu 07:41:00 PM 66.6098 -129.2815 278° West  Level FlightAware Approximate
Thu 07:42:00 PM 66.6282 -129.6107 278° West  Level FlightAware Approximate
Thu 07:43:00 PM 66.6458 -129.9405 278° West  Level FlightAware Approximate
Thu 07:44:00 PM 66.6810 -130.2604 286° West  Level Estimated
Thu 07:45:00 PM 66.7155 -130.5812 285° West  Level Estimated
Thu 07:46:00 PM 66.7494 -130.9029 285° West  Level Estimated
Thu 07:47:00 PM 66.7826 -131.2255 285° West  Level Estimated
Thu 07:48:00 PM 66.8151 -131.5489 284° West  Level Estimated
Thu 07:49:00 PM 66.8470 -131.8732 284° West  Level Estimated
Thu 07:50:00 PM 66.8782 -132.1983 284° West  Level Estimated
Thu 07:51:00 PM 66.9088 -132.5243 284° West  Level Estimated
Thu 07:52:00 PM 66.9387 -132.8510 283° West  Level Estimated
Thu 07:53:00 PM 66.9679 -133.1786 283° West  Level Estimated
Thu 07:54:00 PM 66.9964 -133.5069 283° West  Level Estimated
Thu 07:55:00 PM 67.0243 -133.8360 282° West  Level Estimated
Thu 07:56:00 PM 67.0514 -134.1658 282° West  Level Estimated
Thu 07:57:00 PM 67.0779 -134.4964 282° West  Level Estimated
Thu 07:58:00 PM 67.1037 -134.8277 281° West  Level Estimated
Thu 07:59:00 PM 67.1289 -135.1597 281° West  Level Estimated
Thu 08:00:00 PM 67.1533 -135.4923 281° West  Level Estimated
Thu 08:01:00 PM 67.1770 -135.8257 281° West  Level Estimated
Thu 08:02:00 PM 67.2001 -136.1596 280° West  Level Estimated
Thu 08:03:00 PM 67.2224 -136.4942 280° West  Level Estimated
Thu 08:04:00 PM 67.2440 -136.8295 280° West  Level Estimated
Thu 08:05:00 PM 67.2650 -137.1653 279° West  Level Estimated
Thu 08:05:44 PM 66.9833 -136.9667 277° West 480 552 34,000  Level Anchorage Center
Thu 08:06:00 PM 67.2852 -137.5016 279° West  Level Estimated
Thu 08:06:44 PM 66.9667 -137.3000 263° West 490 564 34,000  Level Anchorage Center
Thu 08:07:00 PM 67.3049 -137.8408 279° West  Level Estimated
Thu 08:07:44 PM 66.9500 -137.6500 263° West 490 564 34,000  Level Anchorage Center
Thu 08:08:00 PM 67.3238 -138.1805 278° West  Level Estimated
Thu 08:08:44 PM 66.9500 -138.0000 270° West 500 575 34,000  Level Anchorage Center
Thu 08:09:00 PM 67.3420 -138.5208 278° West  Level Estimated
Thu 08:09:44 PM 66.9333 -138.3500 263° West 490 564 34,000  Level Anchorage Center
Thu 08:10:00 PM 67.3596 -138.8615 278° West  Level Estimated
Thu 08:10:44 PM 66.9167 -138.7000 263° West 490 564 34,000  Level Anchorage Center
Thu 08:11:00 PM 67.3764 -139.2028 277° West  Level Estimated
Thu 08:11:44 PM 66.9167 -139.0500 270° West 490 564 34,000  Level Anchorage Center
Thu 08:12:44 PM 66.9000 -139.4000 263° West 490 564 34,000  Level Anchorage Center
Thu 08:13:44 PM 66.8833 -139.7333 263° West 490 564 34,000  Level Anchorage Center
Thu 08:14:45 PM 66.8667 -140.0833 263° West 490 564 34,000  Level Anchorage Center
Thu 08:15:45 PM 66.8500 -140.4333 263° West 490 564 34,000  Level Anchorage Center
Thu 08:16:45 PM 66.8333 -140.7833 263° West 500 575 34,000  Level Anchorage Center
Thu 08:17:45 PM 66.8167 -141.1333 263° West 490 564 34,000  Level Anchorage Center
Thu 08:18:45 PM 66.8167 -141.4833 270° West 500 575 34,000  Level Anchorage Center
Thu 08:19:45 PM 66.7833 -141.8167 256° West 500 575 34,000  Level Anchorage Center
Thu 08:20:45 PM 66.7667 -142.1833 264° West 510 587 34,000  Level Anchorage Center
Thu 08:21:45 PM 66.7500 -142.5333 263° West 500 575 34,000  Level Anchorage Center
Thu 08:22:45 PM 66.7333 -142.8833 263° West 500 575 34,000  Level Anchorage Center
Thu 08:23:45 PM 66.7000 -143.2333 257° West 510 587 34,000  Level Anchorage Center
Thu 08:24:46 PM 66.6833 -143.5833 263° West 510 587 34,000  Level Anchorage Center
Thu 08:25:45 PM 66.6667 -143.9333 263° West 500 575 34,000  Level Anchorage Center
Thu 08:26:45 PM 66.6333 -144.2833 257° West 510 587 34,000  Level Anchorage Center
Thu 08:27:46 PM 66.6167 -144.6333 263° West 510 587 34,000  Level Anchorage Center
Thu 08:28:46 PM 66.5833 -144.9833 257° West 510 587 34,000  Level Anchorage Center
Thu 08:29:46 PM 66.5500 -145.3167 256° West 520 598 34,000  Level Anchorage Center
Thu 08:30:46 PM 66.4667 -145.6167 235° Southwest 540 621 34,000  Level Anchorage Center
Thu 08:31:46 PM 66.4000 -145.8833 238° Southwest 530 610 34,000  Level Anchorage Center
Thu 08:32:46 PM 66.3000 -146.1833 230° Southwest 530 610 34,000  Level Anchorage Center
Thu 08:33:46 PM 66.2167 -146.4833 236° Southwest 540 621 34,000  Level Anchorage Center
Thu 08:34:46 PM 66.1333 -146.7833 236° Southwest 540 621 34,000  Level Anchorage Center
Thu 08:35:47 PM 66.0500 -147.0833 236° Southwest 540 621 34,000  Level Anchorage Center
Thu 08:36:47 PM 65.9500 -147.3833 231° Southwest 540 621 34,000  Level Anchorage Center
Thu 08:37:46 PM 65.8667 -147.6667 234° Southwest 530 610 34,000  Level Anchorage Center
Thu 08:38:47 PM 65.7667 -147.9833 233° Southwest 540 621 34,000  Level Anchorage Center
Thu 08:39:46 PM 65.6833 -148.2833 236° Southwest 540 621 34,000  Level Anchorage Center
Thu 08:40:47 PM 65.5833 -148.5667 230° Southwest 550 633 34,000  Level Anchorage Center
Thu 08:41:47 PM 65.5000 -148.8667 236° Southwest 550 633 34,000  Level Anchorage Center
Thu 08:42:47 PM 65.4000 -149.1500 230° Southwest 550 633 34,000  Level Anchorage Center
Thu 08:43:47 PM 65.3000 -149.4333 230° Southwest 560 644 34,000  Level Anchorage Center
Thu 08:44:47 PM 65.2167 -149.7333 237° Southwest 560 644 34,000  Level Anchorage Center
Thu 08:45:47 PM 65.1167 -150.0167 230° Southwest 560 644 34,000  Level Anchorage Center
Thu 08:46:48 PM 65.0167 -150.3000 230° Southwest 560 644 34,000  Level Anchorage Center
Thu 08:47:47 PM 64.9167 -150.5833 230° Southwest 560 644 34,000  Level Anchorage Center
Thu 08:48:48 PM 64.8167 -150.8667 230° Southwest 560 644 34,000  Level Anchorage Center
Thu 08:49:48 PM 64.7167 -151.1500 231° Southwest 560 644 34,000  Level Anchorage Center
Thu 08:50:48 PM 64.6167 -151.4333 231° Southwest 560 644 34,000  Level Anchorage Center
Thu 08:51:48 PM 64.5167 -151.7167 231° Southwest 570 656 34,000  Level Anchorage Center
Thu 08:52:48 PM 64.4167 -151.9833 229° Southwest 570 656 34,000  Level Anchorage Center
Thu 08:53:48 PM 64.3000 -152.2833 228° Southwest 570 656 34,000  Level Anchorage Center
Thu 08:54:48 PM 64.2000 -152.5500 229° Southwest 580 667 34,000  Level Anchorage Center
Thu 08:55:48 PM 64.0667 -152.8833 228° Southwest 580 667 34,000  Level Anchorage Center
Thu 08:56:48 PM 63.9667 -153.1500 230° Southwest 580 667 34,000  Level Anchorage Center
Thu 08:57:49 PM 63.8500 -153.4167 225° Southwest 580 667 34,000  Level Anchorage Center
Thu 08:58:49 PM 63.7500 -153.7000 231° Southwest 590 679 34,000  Level Anchorage Center
Thu 08:59:49 PM 63.6333 -153.9667 225° Southwest 590 679 34,000  Level Anchorage Center
Thu 09:00:49 PM 63.5167 -154.2500 227° Southwest 590 679 34,000  Level Anchorage Center
Thu 09:01:49 PM 63.4000 -154.5167 226° Southwest 590 679 34,000  Level Anchorage Center
Thu 09:02:49 PM 63.3000 -154.7833 230° Southwest 590 679 34,000  Level Anchorage Center
Thu 09:03:49 PM 63.1833 -155.0500 226° Southwest 580 667 34,000  Level Anchorage Center
Thu 09:04:49 PM 63.0667 -155.3167 226° Southwest 580 667 34,000  Level Anchorage Center
Thu 09:05:49 PM 62.9500 -155.5667 224° Southwest 560 644 34,000  Level Anchorage Center
Thu 09:06:49 PM 62.9000 -155.8667 250° West 560 644 34,000  Level Anchorage Center
Thu 09:07:49 PM 62.8333 -156.1667 244° Southwest 540 621 34,000  Level Anchorage Center
Thu 09:08:49 PM 62.7833 -156.4500 249° West 540 621 34,000  Level Anchorage Center
Thu 09:09:49 PM 62.7333 -156.7500 250° West 530 610 34,000  Level Anchorage Center
Thu 09:10:50 PM 62.6667 -157.0667 245° Southwest 530 610 34,000  Level Anchorage Center
Thu 09:11:49 PM 62.6167 -157.3667 250° West 530 610 34,000  Level Anchorage Center
Thu 09:12:50 PM 62.5500 -157.6500 243° Southwest 530 610 34,000  Level Anchorage Center
Thu 09:13:50 PM 62.5000 -157.9500 250° West 530 610 34,000  Level Anchorage Center
Thu 09:14:50 PM 62.4333 -158.2500 244° Southwest 530 610 34,000  Level Anchorage Center
Thu 09:15:50 PM 62.3833 -158.5333 249° West 520 598 34,000  Level Anchorage Center
Thu 09:16:50 PM 62.3167 -158.8333 245° Southwest 530 610 34,000  Level Anchorage Center
Thu 09:17:50 PM 62.2500 -159.1167 243° Southwest 530 610 34,000  Level Anchorage Center
Thu 09:18:50 PM 62.2000 -159.4167 250° West 540 621 34,000  Level Anchorage Center
Thu 09:19:51 PM 62.1333 -159.7000 243° Southwest 530 610 34,000  Level Anchorage Center
Thu 09:20:50 PM 62.0667 -159.9833 243° Southwest 520 598 34,000  Level Anchorage Center
Thu 09:21:50 PM 62.0000 -160.2667 243° Southwest 530 610 34,000  Level Anchorage Center
Thu 09:22:51 PM 61.9333 -160.5500 244° Southwest 520 598 34,000  Level Anchorage Center
Thu 09:23:50 PM 61.8833 -160.8167 248° West 520 598 34,000  Level Anchorage Center
Thu 09:24:51 PM 61.8167 -161.1000 244° Southwest 520 598 34,000  Level Anchorage Center
Thu 09:25:51 PM 61.7500 -161.3667 242° Southwest 520 598 34,000  Level Anchorage Center
Thu 09:26:51 PM 61.6833 -161.6500 244° Southwest 520 598 34,000  Level Anchorage Center
Thu 09:27:51 PM 61.6167 -161.9167 242° Southwest 520 598 34,000  Level Anchorage Center
Thu 09:28:51 PM 61.5500 -162.2000 244° Southwest 530 610 34,000  Level Anchorage Center
Thu 09:29:51 PM 61.4833 -162.4667 242° Southwest 520 598 34,000  Level Anchorage Center
Thu 09:30:51 PM 61.4167 -162.7333 243° Southwest 520 598 34,000  Level Anchorage Center
Thu 09:31:51 PM 61.3500 -163.0167 244° Southwest 520 598 34,000  Level Anchorage Center
Thu 09:32:51 PM 61.2667 -163.2833 237° Southwest 530 610 34,000  Level Anchorage Center
Thu 09:33:51 PM 61.2000 -163.5500 243° Southwest 520 598 34,000  Level Anchorage Center
Thu 09:34:51 PM 61.1333 -163.8333 244° Southwest 530 610 34,000  Level Anchorage Center
Thu 09:35:52 PM 61.0667 -164.1000 243° Southwest 530 610 34,000  Level Anchorage Center
Thu 09:36:52 PM 60.9833 -164.3500 236° Southwest 520 598 34,000  Level Anchorage Center
Thu 09:37:52 PM 60.9167 -164.6167 243° Southwest 520 598 34,000  Level Anchorage Center
Thu 09:38:52 PM 60.8500 -164.8833 243° Southwest 520 598 34,000  Level Anchorage Center
Thu 09:39:52 PM 60.7833 -165.1500 243° Southwest 510 587 34,000  Level Anchorage Center
Thu 09:40:52 PM 60.7500 -165.4333 257° West 500 575 34,000  Level Anchorage Center
Thu 09:41:52 PM 60.7000 -165.7167 250° West 510 587 34,000  Level Anchorage Center
Thu 09:42:52 PM 60.6500 -165.9833 249° West 500 575 34,000  Level Anchorage Center
Thu 09:43:55 PM 60.6167 -166.2667 257° West 510 587 34,000  Level Anchorage Center
Thu 09:44:55 PM 60.5667 -166.5333 249° West 510 587 34,000  Level Anchorage Center
Thu 09:45:55 PM 60.5167 -166.8167 250° West 510 587 34,000  Level Anchorage Center
Thu 09:46:55 PM 60.4667 -167.0833 249° West 510 587 34,000  Level Anchorage Center
Thu 09:47:55 PM 60.4167 -167.3500 249° West 510 587 34,000  Level Anchorage Center
Thu 09:48:55 PM 60.3667 -167.6167 249° West 500 575 34,000  Level Anchorage Center
Thu 09:49:56 PM 60.3333 -167.9000 257° West 510 587 34,000  Level Anchorage Center
Thu 09:50:55 PM 60.2833 -168.1667 249° West 510 587 34,000  Level Anchorage Center
Thu 09:51:56 PM 60.2333 -168.4333 249° West 510 587 34,000  Level Anchorage Center
Thu 09:52:56 PM 60.1833 -168.7000 249° West 500 575 34,000  Level Anchorage Center
Thu 09:53:56 PM 60.1333 -168.9667 249° West 510 587 34,000  Level Anchorage Center
Thu 09:54:56 PM 60.0833 -169.2333 249° West 500 575 34,000  Level Anchorage Center
Thu 09:55:56 PM 60.0167 -169.5000 244° Southwest 510 587 34,000  Level Anchorage Center
Thu 09:56:56 PM 59.9667 -169.7667 250° West 510 587 34,000  Level Anchorage Center
Thu 09:57:56 PM 59.9167 -170.0333 250° West 500 575 34,000  Level Anchorage Center
Thu 09:58:56 PM 59.8667 -170.3000 250° West 510 587 34,000  Level Anchorage Center
Thu 09:59:56 PM 59.8167 -170.5667 250° West 500 575 34,000  Level Anchorage Center
Thu 10:00:56 PM 59.7667 -170.8167 248° West 510 587 34,000  Level Anchorage Center
Thu 10:01:57 PM 59.7000 -171.0833 244° Southwest 500 575 34,000  Level Anchorage Center
Thu 10:02:56 PM 59.6500 -171.3500 250° West 510 587 34,000  Level Anchorage Center
Thu 10:03:56 PM 59.6000 -171.6000 249° West 510 587 34,000  Level Anchorage Center
Thu 10:04:56 PM 59.5333 -171.8500 242° Southwest 510 587 34,000  Level Anchorage Center
Thu 10:05:57 PM 59.4833 -172.1167 250° West 510 587 34,000  Level Anchorage Center
Thu 10:06:57 PM 59.4333 -172.3667 249° West 510 587 34,000  Level Anchorage Center
Thu 10:07:57 PM 59.3833 -172.6333 250° West 510 587 34,000  Level Anchorage Center
Thu 10:08:57 PM 59.3333 -172.8833 249° West 500 575 34,000  Level Anchorage Center
Thu 10:09:57 PM 59.2667 -173.1500 244° Southwest 510 587 34,000  Level Anchorage Center
Thu 10:10:57 PM 59.2167 -173.4000 249° West 500 575 34,000  Level Anchorage Center
Thu 10:11:57 PM 59.1667 -173.6667 250° West 510 587 34,000  Level Anchorage Center
Thu 10:12:57 PM 59.1000 -173.9167 243° Southwest 510 587 34,000  Level Anchorage Center
Thu 10:13:57 PM 59.0500 -174.1833 250° West 510 587 34,000  Level Anchorage Center
Thu 10:14:57 PM 59.0000 -174.4167 247° West 500 575 34,000  Level Anchorage Center
Thu 10:15:57 PM 58.9333 -174.6833 244° Southwest 510 587 34,000  Level Anchorage Center
Thu 10:16:57 PM 58.8833 -174.9333 249° West 500 575 34,000  Level Anchorage Center
Thu 10:17:58 PM 58.8167 -175.1833 243° Southwest 520 598 34,000  Level Anchorage Center
Thu 10:18:57 PM 58.7667 -175.4333 249° West 510 587 34,000  Level Anchorage Center
Thu 10:19:57 PM 58.7167 -175.6833 249° West 510 587 34,000  Level Anchorage Center
Thu 10:21:57 PM 58.6000 -176.1833 246° West 500 575 34,000  Level Anchorage Center
Thu 10:22:57 PM 58.5333 -176.4333 243° Southwest 510 587 34,000  Level Anchorage Center
Thu 10:23:58 PM 58.4667 -176.6833 243° Southwest 510 587 34,000  Level Anchorage Center
Thu 10:25:57 PM 58.3500 -177.1667 245° Southwest 510 587 34,000  Level Anchorage Center
Thu 10:27:00 PM 58.2920 -177.4044 245° Southwest  Level FlightAware Approximate
Thu 10:34:00 PM 57.8941 -178.9696 245° Southwest  Level FlightAware Approximate
Thu 10:35:00 PM 57.8358 -179.1904 244° Southwest  Level FlightAware Approximate
Thu 10:36:00 PM 57.7770 -179.4104 243° Southwest  Level FlightAware Approximate
Thu 10:37:00 PM 57.7178 -179.6297 243° Southwest  Level FlightAware Approximate
Thu 10:38:00 PM 57.6583 -179.8483 243° Southwest  Level FlightAware Approximate
Thu 10:39:00 PM 57.5980 179.9342 242° Southwest  Level FlightAware Approximate
Thu 10:40:00 PM 57.5364 179.7184 242° Southwest  Level FlightAware Approximate
Thu 10:41:00 PM 57.4745 179.5032 242° Southwest  Level FlightAware Approximate
Thu 10:42:00 PM 57.4122 179.2888 242° Southwest  Level FlightAware Approximate
Thu 10:43:00 PM 57.3495 179.0751 242° Southwest  Level FlightAware Approximate
Thu 10:44:00 PM 57.2865 178.8622 241° Southwest  Level FlightAware Approximate
Thu 10:45:00 PM 57.2231 178.6500 241° Southwest  Level FlightAware Approximate
Thu 10:46:00 PM 57.1593 178.4385 241° Southwest  Level FlightAware Approximate
Thu 10:47:00 PM 57.0952 178.2277 241° Southwest  Level FlightAware Approximate
Thu 10:48:00 PM 57.0307 178.0177 241° Southwest  Level FlightAware Approximate
Thu 10:49:00 PM 56.9659 177.8084 240° Southwest  Level FlightAware Approximate
Thu 10:50:00 PM 56.9008 177.5998 240° Southwest  Level FlightAware Approximate
Thu 10:51:00 PM 56.8353 177.3920 240° Southwest  Level FlightAware Approximate
Thu 10:52:00 PM 56.7696 177.1848 240° Southwest  Level FlightAware Approximate
Thu 10:53:00 PM 56.7036 176.9782 240° Southwest  Level FlightAware Approximate
Thu 10:54:00 PM 56.6372 176.7723 240° Southwest  Level FlightAware Approximate
Thu 10:55:00 PM 56.5705 176.5672 240° Southwest  Level FlightAware Approximate
Thu 10:56:00 PM 56.5035 176.3627 239° Southwest  Level FlightAware Approximate
Thu 10:57:00 PM 56.4362 176.1591 239° Southwest  Level FlightAware Approximate
Thu 10:58:00 PM 56.3685 175.9561 239° Southwest  Level FlightAware Approximate
Thu 10:59:00 PM 56.3005 175.7538 239° Southwest  Level FlightAware Approximate
Thu 11:00:00 PM 56.2322 175.5523 239° Southwest  Level FlightAware Approximate
Thu 11:00:15 PM 56.0000 174.9333 238° Southwest 510 587 34,000  Level Anchorage Center
Thu 11:01:00 PM 56.1635 175.3515 239° Southwest  Level FlightAware Approximate
Thu 11:01:25 PM 55.9167 174.6833 239° Southwest 530 610 34,000  Level Anchorage Center
Thu 11:02:00 PM 56.0945 175.1514 238° Southwest  Level FlightAware Approximate
Thu 11:02:25 PM 55.8500 174.5000 237° Southwest 510 587 34,000  Level Anchorage Center
Thu 11:03:00 PM 56.0252 174.9520 238° Southwest  Level FlightAware Approximate
Thu 11:03:25 PM 55.7667 174.2667 238° Southwest 520 598 34,000  Level Anchorage Center
Thu 11:04:00 PM 55.9556 174.7534 238° Southwest  Level FlightAware Approximate
Thu 11:04:25 PM 55.6833 174.0333 238° Southwest 520 598 34,000  Level Anchorage Center
Thu 11:05:00 PM 55.8856 174.5554 238° Southwest  Level FlightAware Approximate
Thu 11:05:25 PM 55.6167 173.8500 237° Southwest 510 587 34,000  Level Anchorage Center
Thu 11:06:25 PM 55.5333 173.6167 238° Southwest 510 587 34,000  Level Anchorage Center
Thu 11:07:25 PM 55.4667 173.4333 237° Southwest 520 598 34,000  Level Anchorage Center
Thu 11:08:25 PM 55.3667 173.2000 233° Southwest 510 587 34,000  Level Anchorage Center
Thu 11:09:25 PM 55.3000 173.0333 235° Southwest 510 587 34,000  Level Anchorage Center
Thu 11:10:25 PM 55.2167 172.8000 238° Southwest 510 587 34,000  Level Anchorage Center
Thu 11:11:25 PM 55.1500 172.6167 238° Southwest 510 587 34,000  Level Anchorage Center
Thu 11:12:26 PM 55.0667 172.4000 236° Southwest 510 587 34,000  Level Anchorage Center
Thu 11:13:26 PM 54.9833 172.1667 238° Southwest 520 598 34,000  Level Anchorage Center
Thu 11:14:26 PM 54.9000 171.9833 232° Southwest 510 587 34,000  Level Anchorage Center
Thu 11:15:26 PM 54.8167 171.7667 236° Southwest 510 587 34,000  Level Anchorage Center
Thu 11:16:26 PM 54.7500 171.6000 235° Southwest 510 587 34,000  Level Anchorage Center
Thu 11:17:26 PM 54.6500 171.3833 231° Southwest 510 587 34,000  Level Anchorage Center
Thu 11:18:26 PM 54.5833 171.2167 235° Southwest 510 587 34,000  Level Anchorage Center
Thu 11:19:26 PM 54.5000 171.0000 237° Southwest 510 587 34,000  Level Anchorage Center
Thu 11:20:26 PM 54.4000 170.7667 234° Southwest 520 598 34,000  Level Anchorage Center
Thu 11:21:26 PM 54.3167 170.6000 229° Southwest 530 610 34,000  Level Anchorage Center
Thu 11:22:26 PM 54.2333 170.3833 237° Southwest 520 598 34,000  Level Anchorage Center
Thu 11:23:26 PM 54.1500 170.2167 230° Southwest 510 587 34,000  Level Anchorage Center
Thu 11:24:26 PM 54.0667 170.0000 237° Southwest 530 610 34,000  Level Anchorage Center
Thu 11:25:26 PM 53.9833 169.8333 230° Southwest 510 587 34,000  Level Anchorage Center
Thu 11:26:26 PM 53.9000 169.6333 235° Southwest 510 587 34,000  Level Anchorage Center
Thu 11:27:27 PM 53.8000 169.4167 232° Southwest 520 598 34,000  Level Anchorage Center
Thu 11:28:27 PM 53.7333 169.2500 236° Southwest 510 587 34,000  Level Anchorage Center
Thu 11:29:27 PM 53.6500 169.0167 239° Southwest 550 633 34,000  Level Anchorage Center
Thu 11:30:26 PM 53.5833 168.8333 239° Southwest 520 598 34,000  Level Anchorage Center
Thu 11:31:27 PM 53.5167 168.6500 239° Southwest 540 621 34,000 Level Anchorage Center
Thu 11:33:00 PM 53.4310 168.3431 245° Southwest  Level FlightAware Approximate
Thu 11:40:00 PM 52.9720 167.0283 240° Southwest  Level FlightAware Approximate
Thu 11:41:00 PM 52.9045 166.8436 239° Southwest  Level FlightAware Approximate
Thu 11:42:00 PM 52.8368 166.6595 239° Southwest  Level FlightAware Approximate
Thu 11:43:00 PM 52.7687 166.4759 239° Southwest  Level FlightAware Approximate
Thu 11:44:00 PM 52.7004 166.2929 238° Southwest  Level FlightAware Approximate
Thu 11:45:00 PM 52.6318 166.1105 238° Southwest  Level FlightAware Approximate
Thu 11:46:00 PM 52.5630 165.9287 238° Southwest  Level FlightAware Approximate
Thu 11:47:00 PM 52.4938 165.7474 238° Southwest  Level FlightAware Approximate
Thu 11:48:00 PM 52.4244 165.5667 238° Southwest  Level FlightAware Approximate
Thu 11:49:00 PM 52.3547 165.3866 238° Southwest  Level FlightAware Approximate
Thu 11:50:00 PM 52.2847 165.2070 238° Southwest  Level FlightAware Approximate
Thu 11:51:00 PM 52.2145 165.0280 237° Southwest  Level FlightAware Approximate
Thu 11:52:00 PM 52.1440 164.8496 237° Southwest  Level FlightAware Approximate
Thu 11:53:00 PM 52.0732 164.6717 237° Southwest  Level FlightAware Approximate
Thu 11:54:00 PM 52.0021 164.4944 237° Southwest  Level FlightAware Approximate
Thu 11:55:00 PM 51.9308 164.3177 237° Southwest  Level FlightAware Approximate
Thu 11:56:00 PM 51.8592 164.1415 237° Southwest  Level FlightAware Approximate
Thu 11:57:00 PM 51.7874 163.9659 237° Southwest  Level FlightAware Approximate
Thu 11:58:00 PM 51.7153 163.7908 236° Southwest  Level FlightAware Approximate
Thu 11:59:00 PM 51.6429 163.6163 236° Southwest  Level FlightAware Approximate
Fri 12:00:00 AM 51.5702 163.4425 236° Southwest  Level FlightAware Approximate
Fri 12:01:00 AM 51.4972 163.2692 236° Southwest  Level FlightAware Approximate
Fri 12:02:00 AM 51.4240 163.0965 236° Southwest  Level FlightAware Approximate
Fri 12:03:00 AM 51.3506 162.9243 236° Southwest  Level FlightAware Approximate
Fri 12:04:00 AM 51.2768 162.7527 236° Southwest  Level FlightAware Approximate
Fri 12:05:00 AM 51.2029 162.5816 235° Southwest  Level FlightAware Approximate
Fri 12:06:00 AM 51.1287 162.4111 235° Southwest  Level FlightAware Approximate
Fri 12:07:00 AM 51.0542 162.2411 235° Southwest  Level FlightAware Approximate
Fri 12:08:00 AM 50.9795 162.0717 235° Southwest  Level FlightAware Approximate
Fri 12:09:00 AM 50.9045 161.9028 235° Southwest  Level FlightAware Approximate
Fri 12:10:00 AM 50.8293 161.7345 235° Southwest  Level FlightAware Approximate
Fri 12:11:00 AM 50.7538 161.5667 235° Southwest  Level FlightAware Approximate
Fri 12:12:00 AM 50.6782 161.3994 235° Southwest  Level FlightAware Approximate
Fri 12:13:00 AM 50.6022 161.2327 234° Southwest  Level FlightAware Approximate
Fri 12:14:00 AM 50.5261 161.0665 234° Southwest  Level FlightAware Approximate
Fri 12:15:00 AM 50.4497 160.9009 234° Southwest  Level FlightAware Approximate
Fri 12:16:00 AM 50.3731 160.7357 234° Southwest  Level FlightAware Approximate
Fri 12:17:00 AM 50.2962 160.5712 234° Southwest  Level FlightAware Approximate
Fri 12:18:00 AM 50.2191 160.4071 234° Southwest  Level FlightAware Approximate
Fri 12:19:00 AM 50.1422 160.2431 234° Southwest  Level FlightAware Approximate
Fri 12:20:00 AM 50.0653 160.0794 234° Southwest  Level FlightAware Approximate
Fri 12:21:00 AM 49.9882 159.9162 234° Southwest  Level FlightAware Approximate
Fri 12:22:00 AM 49.9108 159.7536 234° Southwest  Level FlightAware Approximate
Fri 12:23:00 AM 49.8331 159.5914 233° Southwest  Level FlightAware Approximate
Fri 12:24:00 AM 49.7553 159.4298 233° Southwest  Level FlightAware Approximate
Fri 12:25:00 AM 49.6769 159.2861 233° Southwest  Level FlightAware Approximate
Fri 12:26:00 AM 49.5984 159.1258 233° Southwest  Level FlightAware Approximate
Fri 12:27:00 AM 49.5197 158.9660 233° Southwest  Level FlightAware Approximate
Fri 12:28:00 AM 49.4407 158.8068 233° Southwest  Level FlightAware Approximate
Fri 12:29:00 AM 49.3615 158.6480 233° Southwest  Level FlightAware Approximate
Fri 12:30:00 AM 49.2821 158.4898 232° Southwest  Level FlightAware Approximate
Fri 12:31:00 AM 49.2025 158.3320 232° Southwest  Level FlightAware Approximate
Fri 12:32:00 AM 49.1227 158.1748 232° Southwest  Level FlightAware Approximate
Fri 12:33:00 AM 49.0426 158.0181 232° Southwest  Level FlightAware Approximate
Fri 12:34:00 AM 48.9623 157.8619 232° Southwest  Level FlightAware Approximate
Fri 12:35:00 AM 48.8819 157.7062 232° Southwest  Level FlightAware Approximate
Fri 12:36:00 AM 48.8012 157.5510 232° Southwest  Level FlightAware Approximate
Fri 12:37:00 AM 48.7203 157.3963 232° Southwest  Level FlightAware Approximate
Fri 12:38:00 AM 48.6392 157.2421 232° Southwest  Level FlightAware Approximate
Fri 12:39:00 AM 48.5579 157.0883 231° Southwest  Level FlightAware Approximate
Fri 12:40:00 AM 48.4764 156.9351 231° Southwest  Level FlightAware Approximate
Fri 12:41:00 AM 48.3947 156.7824 231° Southwest  Level FlightAware Approximate
Fri 12:42:00 AM 48.3128 156.6302 231° Southwest  Level FlightAware Approximate
Fri 12:43:00 AM 48.2307 156.4784 231° Southwest  Level FlightAware Approximate
Fri 12:44:00 AM 48.1484 156.3271 231° Southwest  Level FlightAware Approximate
Fri 12:45:00 AM 48.0659 156.1764 231° Southwest  Level FlightAware Approximate
Fri 12:46:00 AM 47.9832 156.0261 231° Southwest  Level FlightAware Approximate
Fri 12:47:00 AM 47.9003 155.8763 231° Southwest  Level FlightAware Approximate
Fri 12:48:00 AM 47.8172 155.7269 230° Southwest  Level FlightAware Approximate
Fri 12:49:00 AM 47.7340 155.5780 230° Southwest  Level FlightAware Approximate
Fri 12:50:00 AM 47.6505 155.4297 230° Southwest  Level FlightAware Approximate
Fri 12:51:00 AM 47.5668 155.2818 230° Southwest  Level FlightAware Approximate
Fri 12:52:00 AM 47.4830 155.1343 230° Southwest  Level FlightAware Approximate
Fri 12:53:00 AM 47.3989 154.9874 230° Southwest  Level FlightAware Approximate
Fri 12:54:00 AM 47.3147 154.8409 230° Southwest  Level FlightAware Approximate
Fri 12:55:00 AM 47.2303 154.6948 230° Southwest  Level FlightAware Approximate
Fri 12:56:00 AM 47.1457 154.5493 230° Southwest  Level FlightAware Approximate
Fri 12:57:00 AM 47.0609 154.4042 229° Southwest  Level FlightAware Approximate
Fri 12:58:00 AM 46.9760 154.2595 229° Southwest  Level FlightAware Approximate
Fri 12:59:00 AM 46.8908 154.1154 229° Southwest  Level FlightAware Approximate
Fri 01:00:00 AM 46.8055 153.9716 229° Southwest  Level FlightAware Approximate
Fri 01:01:00 AM 46.7200 153.8284 229° Southwest  Level FlightAware Approximate
Fri 01:02:00 AM 46.6343 153.6856 229° Southwest  Level FlightAware Approximate
Fri 01:03:00 AM 46.5484 153.5432 229° Southwest  Level FlightAware Approximate
Fri 01:04:00 AM 46.4624 153.4013 229° Southwest  Level FlightAware Approximate
Fri 01:05:00 AM 46.3762 153.2598 229° Southwest  Level FlightAware Approximate
Fri 01:06:00 AM 46.2898 153.1188 228° Southwest  Level FlightAware Approximate
Fri 01:07:00 AM 46.2031 152.9784 228° Southwest  Level FlightAware Approximate
Fri 01:08:00 AM 46.1157 152.8392 228° Southwest  Level FlightAware Approximate
Fri 01:09:00 AM 46.0280 152.7005 228° Southwest  Level FlightAware Approximate
Fri 01:10:00 AM 45.9402 152.5621 228° Southwest  Level FlightAware Approximate
Fri 01:11:00 AM 45.8523 152.4243 228° Southwest  Level FlightAware Approximate
Fri 01:12:00 AM 45.7641 152.2869 227° Southwest  Level FlightAware Approximate
Fri 01:13:00 AM 45.6759 152.1499 227° Southwest  Level FlightAware Approximate
Fri 01:14:00 AM 45.5874 152.0133 227° Southwest  Level FlightAware Approximate
Fri 01:15:00 AM 45.4988 151.8772 227° Southwest  Level FlightAware Approximate
Fri 01:16:00 AM 45.4100 151.7415 227° Southwest  Level FlightAware Approximate
Fri 01:17:00 AM 45.3211 151.6062 227° Southwest  Level FlightAware Approximate
Fri 01:18:00 AM 45.2320 151.4713 227° Southwest  Level FlightAware Approximate
Fri 01:19:00 AM 45.1427 151.3369 227° Southwest  Level FlightAware Approximate
Fri 01:20:00 AM 45.0533 151.2029 227° Southwest  Level FlightAware Approximate
Fri 01:21:00 AM 44.9637 151.0693 227° Southwest  Level FlightAware Approximate
Fri 01:22:00 AM 44.8740 150.9361 226° Southwest  Level FlightAware Approximate
Fri 01:23:00 AM 44.7841 150.8034 226° Southwest  Level FlightAware Approximate
Fri 01:24:00 AM 44.6941 150.6710 226° Southwest  Level FlightAware Approximate
Fri 01:25:00 AM 44.6039 150.5391 226° Southwest  Level FlightAware Approximate
Fri 01:26:00 AM 44.5137 150.4074 226° Southwest  Level FlightAware Approximate
Fri 01:27:00 AM 44.4234 150.2761 226° Southwest  Level FlightAware Approximate
Fri 01:28:00 AM 44.3329 150.1452 226° Southwest  Level FlightAware Approximate
Fri 01:29:00 AM 44.2422 150.0148 226° Southwest  Level FlightAware Approximate
Fri 01:30:00 AM 44.1514 149.8847 226° Southwest  Level FlightAware Approximate
Fri 01:31:00 AM 44.0604 149.7550 226° Southwest  Level FlightAware Approximate
Fri 01:32:00 AM 43.9693 149.6257 226° Southwest  Level FlightAware Approximate
Fri 01:33:00 AM 43.8781 149.4969 226° Southwest  Level FlightAware Approximate
Fri 01:34:00 AM 43.7867 149.3684 225° Southwest  Level FlightAware Approximate
Fri 01:35:00 AM 43.6951 149.2403 225° Southwest  Level FlightAware Approximate
Fri 01:36:00 AM 43.6035 149.1126 225° Southwest  Level FlightAware Approximate
Fri 01:37:00 AM 43.5116 148.9853 225° Southwest  Level FlightAware Approximate
Fri 01:38:00 AM 43.4197 148.8584 225° Southwest  Level FlightAware Approximate
Fri 01:38:19 AM 43.5220 148.9590 225° Southwest 415 478 35,100  Level FlightAware ADS-B
Fri 01:38:59 AM 43.4710 148.8880 225° Southwest 413 475 35,100  Level FlightAware ADS-B
Fri 01:39:00 AM 43.3276 148.7318 225° Southwest  Level FlightAware Approximate
Fri 01:39:34 AM 43.4220 148.8190 226° Southwest 413 475 35,100  Level FlightAware ADS-B
Fri 01:40:24 AM 43.3530 148.7220 226° Southwest 413 475 35,100  Level FlightAware ADS-B
Fri 01:41:04 AM 43.3000 148.6480 225° Southwest 412 474 35,100  Level FlightAware ADS-B
Fri 01:41:49 AM 43.2400 148.5640 226° Southwest 411 473 35,100  Level FlightAware ADS-B
Fri 01:42:19 AM 43.2010 148.5090 226° Southwest 410 472 35,100  Level FlightAware ADS-B
Fri 01:42:59 AM 43.1470 148.4350 225° Southwest 410 472 35,100  Level FlightAware ADS-B
Fri 01:43:44 AM 43.0880 148.3530 225° Southwest 410 472 35,100  Level FlightAware ADS-B
Fri 01:44:19 AM 43.0410 148.2880 225° Southwest 410 472 35,100  Level FlightAware ADS-B
Fri 01:45:09 AM 42.9740 148.1940 226° Southwest 403 464 35,100  Level FlightAware ADS-B
Fri 01:45:49 AM 42.9210 148.1220 225° Southwest 408 470 35,100  Level FlightAware ADS-B
Fri 01:46:29 AM 42.8690 148.0490 226° Southwest 401 461 35,100  Level FlightAware ADS-B
Fri 01:47:14 AM 42.8080 147.9660 225° Southwest 400 460 35,100  Level FlightAware ADS-B
Fri 01:47:54 AM 42.7550 147.8930 225° Southwest 401 461 35,100  Level FlightAware ADS-B
Fri 01:48:34 AM 42.7030 147.8200 226° Southwest 401 461 35,100  Level FlightAware ADS-B
Fri 01:49:19 AM 42.6430 147.7390 225° Southwest 402 463 35,100  Level FlightAware ADS-B
Fri 01:49:59 AM 42.5900 147.6660 225° Southwest 408 470 35,100  Level FlightAware ADS-B
Fri 01:50:44 AM 42.5300 147.5840 225° Southwest 408 470 35,100  Level FlightAware ADS-B
Fri 01:51:24 AM 42.4770 147.5120 225° Southwest 399 459 35,100  Level FlightAware ADS-B
Fri 01:52:04 AM 42.4240 147.4400 225° Southwest 397 457 35,100  Level FlightAware ADS-B
Fri 01:52:44 AM 42.3710 147.3690 225° Southwest 396 456 35,100  Level FlightAware ADS-B
Fri 01:53:29 AM 42.3120 147.2890 225° Southwest 396 456 35,100  Level FlightAware ADS-B
Fri 01:54:09 AM 42.2590 147.2180 225° Southwest 396 456 35,100  Level FlightAware ADS-B
Fri 01:54:54 AM 42.2010 147.1380 226° Southwest 393 452 35,100  Level FlightAware ADS-B
Fri 01:55:34 AM 42.1490 147.0690 225° Southwest 391 450 35,100  Level FlightAware ADS-B
Fri 01:56:19 AM 42.0900 146.9900 225° Southwest 389 448 35,100  Level FlightAware ADS-B
Fri 01:56:59 AM 42.0380 146.9210 225° Southwest 388 447 35,100  Level FlightAware ADS-B
Fri 01:57:39 AM 41.9870 146.8530 225° Southwest 392 451 35,100  Level FlightAware ADS-B
Fri 01:58:24 AM 41.9290 146.7760 225° Southwest 386 444 35,100  Level FlightAware ADS-B
Fri 01:59:04 AM 41.8770 146.7070 225° Southwest 386 444 35,100  Level FlightAware ADS-B
Fri 01:59:49 AM 41.8190 146.6300 225° Southwest 386 444 35,100  Level FlightAware ADS-B
Fri 02:00:29 AM 41.7680 146.5620 225° Southwest 385 443 35,100  Level FlightAware ADS-B
Fri 02:01:09 AM 41.7160 146.4950 224° Southwest 384 442 35,100  Level FlightAware ADS-B
Fri 02:01:54 AM 41.6580 146.4190 224° Southwest 388 447 35,100  Level FlightAware ADS-B
Fri 02:02:34 AM 41.6060 146.3520 224° Southwest 386 444 35,100  Level FlightAware ADS-B
Fri 02:03:19 AM 41.5490 146.2770 225° Southwest 384 442 35,100  Level FlightAware ADS-B
Fri 02:03:59 AM 41.4980 146.2110 224° Southwest 383 441 35,100  Level FlightAware ADS-B
Fri 02:04:44 AM 41.4410 146.1370 224° Southwest 382 440 35,100  Level FlightAware ADS-B
Fri 02:05:24 AM 41.3900 146.0710 224° Southwest 381 438 35,100  Level FlightAware ADS-B
Fri 02:06:04 AM 41.3390 146.0070 223° Southwest 379 436 35,100  Level FlightAware ADS-B
Fri 02:06:49 AM 41.2830 145.9350 224° Southwest 379 436 35,100  Level FlightAware ADS-B
Fri 02:07:29 AM 41.2320 145.8700 224° Southwest 378 435 35,100  Level FlightAware ADS-B
Fri 02:08:14 AM 41.1750 145.7980 224° Southwest 377 434 35,100  Level FlightAware ADS-B
Fri 02:08:54 AM 41.1250 145.7340 224° Southwest 378 435 35,100  Level FlightAware ADS-B
Fri 02:09:34 AM 41.0730 145.6690 223° Southwest 379 436 35,100  Level FlightAware ADS-B
Fri 02:10:19 AM 41.0170 145.5980 224° Southwest 379 436 35,100  Level FlightAware ADS-B
Fri 02:10:59 AM 40.9690 145.5390 223° Southwest 379 436 35,100  Level FlightAware ADS-B
Fri 02:11:34 AM 40.9280 145.4890 223° Southwest 379 436 35,100  Level FlightAware ADS-B
Fri 02:12:24 AM 40.8580 145.4020 223° Southwest 376 433 35,100  Level FlightAware ADS-B
Fri 02:12:59 AM 40.8100 145.3420 223° Southwest 376 433 35,100  Level FlightAware ADS-B
Fri 02:13:49 AM 40.7460 145.2640 223° Southwest 378 435 35,100  Level FlightAware ADS-B
Fri 02:14:24 AM 40.7060 145.2150 223° Southwest 378 435 35,100  Level FlightAware ADS-B
Fri 02:15:09 AM 40.6410 145.1360 223° Southwest 377 434 35,100  Level FlightAware ADS-B
Fri 02:15:59 AM 40.5830 145.0660 223° Southwest 378 435 35,100  Level FlightAware ADS-B
Fri 02:16:49 AM 40.5290 144.9990 223° Southwest 378 435 35,100  Level FlightAware ADS-B
Fri 02:17:29 AM 40.4850 144.9460 223° Southwest 378 435 35,100  Level FlightAware ADS-B
Fri 02:18:09 AM 40.4420 144.8920 224° Southwest 378 435 35,100  Level FlightAware ADS-B
Fri 02:18:59 AM 40.3870 144.8260 222° Southwest 378 435 35,100  Level FlightAware ADS-B
Fri 02:19:39 AM 40.3440 144.7720 224° Southwest 378 435 35,100  Level FlightAware ADS-B
Fri 02:20:19 AM 40.3000 144.7190 223° Southwest 378 435 35,100  Level FlightAware ADS-B
Fri 02:20:59 AM 40.2570 144.6660 223° Southwest 378 435 35,100  Level FlightAware ADS-B
Fri 02:21:39 AM 40.2130 144.6130 223° Southwest 378 435 35,100  Level FlightAware ADS-B
Fri 02:22:29 AM 40.1590 144.5470 223° Southwest 378 435 35,100  Level FlightAware ADS-B
Fri 02:23:09 AM 40.1150 144.4940 223° Southwest 378 435 35,100  Level FlightAware ADS-B
Fri 02:23:49 AM 40.0720 144.4410 223° Southwest 378 435 35,100  Level FlightAware ADS-B
Fri 02:24:29 AM 40.0280 144.3880 223° Southwest 378 435 35,100  Level FlightAware ADS-B
Fri 02:25:09 AM 39.9850 144.3350 223° Southwest 378 435 35,100  Level FlightAware ADS-B
Fri 02:27:00 AM 39.7948 144.1426 218° Southwest  Level FlightAware Approximate
Fri 02:28:00 AM 39.6918 144.0390 218° Southwest  Level FlightAware Approximate
Fri 02:29:00 AM 39.5888 143.9357 218° Southwest  Level FlightAware Approximate
Fri 02:30:00 AM 39.4856 143.8328 218° Southwest  Level FlightAware Approximate
Fri 02:31:00 AM 39.3824 143.7301 218° Southwest  Level FlightAware Approximate
Fri 02:32:00 AM 39.2791 143.6278 217° Southwest  Level FlightAware Approximate
Fri 02:33:00 AM 39.1734 143.5221 221° Southwest  Level FlightAware Approximate
Fri 02:34:00 AM 39.0752 143.4120 221° Southwest  Level FlightAware Approximate
Fri 02:34:49 AM 39.0900 143.3550 221° Southwest 355 409 35,100  Level FlightAware ADS-B
Fri 02:35:44 AM 39.0220 143.2810 220° Southwest 355 409 35,100  Level FlightAware ADS-B
Fri 02:36:24 AM 38.9790 143.2340 220° Southwest 355 409 35,100  Level FlightAware ADS-B
Fri 02:37:04 AM 38.9360 143.1880 220° Southwest 355 409 35,100  Level FlightAware ADS-B
Fri 02:37:54 AM 38.8830 143.1310 220° Southwest 355 409 35,100  Level FlightAware ADS-B
Fri 02:38:34 AM 38.8400 143.0850 220° Southwest 355 409 35,100  Level FlightAware ADS-B
Fri 02:39:14 AM 38.7970 143.0380 220° Southwest 355 409 35,100  Level FlightAware ADS-B
Fri 02:39:54 AM 38.7540 142.9920 220° Southwest 355 409 35,100  Level FlightAware ADS-B
Fri 02:40:19 AM 38.5690 143.1480 147° Southeast 35,000  Descending FlightAware ADS-B
Fri 02:40:39 AM 38.5340 143.1440 185° South 377 434 35,100  Climbing FlightAware ADS-B
Fri 02:41:24 AM 38.4540 143.1340 186° South 378 435 35,000  Descending FlightAware ADS-B
Fri 02:42:04 AM 38.3830 143.1250 186° South 379 436 35,100 75 Climbing FlightAware ADS-B
Fri 02:42:44 AM 38.3170 143.1160 186° South 380 437 35,100  Level FlightAware ADS-B
Fri 02:43:24 AM 38.2540 143.1080 186° South 381 438 35,100  Level FlightAware ADS-B
Fri 02:44:04 AM 38.1940 143.1000 186° South 381 438 35,100  Level FlightAware ADS-B
Fri 02:45:14 AM 38.0530 143.0830 185° South 375 432 35,100  Level FlightAware ADS-B
Fri 02:46:04 AM 37.9650 143.0720 186° South 384 442 35,100  Level FlightAware ADS-B
Fri 02:46:44 AM 37.8990 143.0640 185° South 375 432 35,100  Level FlightAware ADS-B
Fri 02:47:14 AM 37.8490 143.0580 185° South 384 442 35,100  Level FlightAware ADS-B
Fri 02:48:09 AM 37.7420 143.0450 185° South 376 433 35,100  Level FlightAware ADS-B
Fri 02:48:49 AM 37.6710 143.0360 186° South 375 432 35,100  Level FlightAware ADS-B
Fri 02:49:29 AM 37.6050 143.0270 186° South 372 428 35,100  Level FlightAware ADS-B
Fri 02:50:09 AM 37.5320 143.0180 186° South 371 427 35,100  Level FlightAware ADS-B
Fri 02:50:49 AM 37.4660 143.0100 185° South 369 425 35,100 -141 Level FlightAware ADS-B
Fri 02:51:34 AM 37.3890 143.0000 186° South 372 428 34,900 -533 Descending FlightAware ADS-B
Fri 02:52:19 AM 37.3150 142.9840 190° South 363 418 34,300 -565 Descending FlightAware ADS-B
Fri 02:52:59 AM 37.2540 142.9490 205° Southwest 344 396 34,100 -141 Descending FlightAware ADS-B
Fri 02:53:44 AM 37.1820 142.9130 202° Southwest 344 396 34,100  Level FlightAware ADS-B
Fri 02:54:19 AM 37.1320 142.8880 202° Southwest 347 399 34,100  Level FlightAware ADS-B
Fri 02:55:04 AM 37.0650 142.8550 201° Southwest 347 399 34,100  Level FlightAware ADS-B
Fri 02:55:44 AM 37.0150 142.8290 203° Southwest 347 399 34,100  Level FlightAware ADS-B
Fri 02:56:34 AM 36.9520 142.7970 202° Southwest 347 399 34,100  Level FlightAware ADS-B
Fri 02:57:14 AM 36.9010 142.7720 201° Southwest 347 399 34,100  Level FlightAware ADS-B
Fri 02:57:54 AM 36.8500 142.7460 202° Southwest 347 399 34,100  Level FlightAware ADS-B
Fri 02:59:14 AM 36.6760 142.6630 201° Southwest 34,100  Level FlightAware ADS-B
Fri 03:01:00 AM 36.5783 142.4111 244° Southwest  Level Estimated
Fri 03:01:07 AM 36.5120 142.5680 244° Southwest 337 388 34,100  Level FlightAware ADS-B
Fri 03:01:47 AM 36.4660 142.5360 209° Southwest 337 388 34,100 -733 Level FlightAware ADS-B
Fri 03:02:37 AM 36.3830 142.4790 209° Southwest 326 375 33,000 -1,200 Descending FlightAware ADS-B
Fri 03:03:17 AM 36.3350 142.4450 210° Southwest 323 372 32,300 -1,267 Descending FlightAware ADS-B
Fri 03:04:07 AM 36.2680 142.3980 209° Southwest 311 358 31,100 -720 Descending FlightAware ADS-B
Fri 03:04:57 AM 36.2120 142.3590 209° Southwest 316 364 31,100  Level FlightAware ADS-B
Fri 03:05:37 AM 36.1620 142.3240 209° Southwest 315 362 31,100 -225 Level FlightAware ADS-B
Fri 03:06:17 AM 36.1030 142.2820 210° Southwest 312 359 30,800 -750 Descending FlightAware ADS-B
Fri 03:06:57 AM 36.0580 142.2500 210° Southwest 300 345 30,100 -1,200 Descending FlightAware ADS-B
Fri 03:07:42 AM 36.0090 142.2160 209° Southwest 305 351 29,100 -1,400 Descending FlightAware ADS-B
Fri 03:08:27 AM 35.9480 142.1730 210° Southwest 296 341 28,000 -1,341 Descending FlightAware ADS-B
Fri 03:09:07 AM 35.9030 142.1410 210° Southwest 285 328 27,200 -1,271 Descending FlightAware ADS-B
Fri 03:09:52 AM 35.8500 142.1040 210° Southwest 272 313 26,200 -1,271 Descending FlightAware ADS-B
Fri 03:10:32 AM 35.8050 142.0710 211° Southwest 243 280 25,400 -1,575 Descending FlightAware ADS-B
Fri 03:11:12 AM 35.7660 142.0440 209° Southwest 238 274 24,100 -1,875 Descending FlightAware ADS-B
Fri 03:11:52 AM 35.7320 142.0190 211° Southwest 239 275 22,900 -1,976 Descending FlightAware ADS-B
Fri 03:12:37 AM 35.6920 141.9900 210° Southwest 245 282 21,300 -2,133 Descending FlightAware ADS-B
Fri 03:13:22 AM 35.6440 141.9560 210° Southwest 249 287 19,700 -2,047 Descending FlightAware ADS-B
Fri 03:14:02 AM 35.6060 141.9160 221° Southwest 252 290 18,400 -1,754 Descending FlightAware ADS-B
Fri 03:14:27 AM 35.5970 141.8780 254° West 277 319 17,800 -982 Descending FlightAware ADS-B
Fri 03:14:57 AM 35.6070 141.8290 284° West 322 371 17,500 -514 Descending FlightAware ADS-B
Fri 03:15:37 AM 35.6350 141.7630 298° West 322 371 17,200 -424 Descending FlightAware ADS-B
Fri 03:16:22 AM 35.6580 141.6860 290° West 316 364 16,900 -494 Descending FlightAware ADS-B
Fri 03:17:02 AM 35.6760 141.6190 288° West 315 362 16,500 -525 Descending FlightAware ADS-B
Fri 03:17:42 AM 35.6940 141.5560 289° West 316 364 16,200 -565 Descending FlightAware ADS-B
Fri 03:18:27 AM 35.7150 141.4800 289° West 317 365 15,700 -565 Descending FlightAware ADS-B
Fri 03:19:07 AM 35.7360 141.4050 289° West 317 365 15,400 -424 Descending FlightAware ADS-B
Fri 03:19:52 AM 35.7550 141.3350 289° West 317 365 15,100 -353 Descending FlightAware ADS-B
Fri 03:20:32 AM 35.7750 141.2630 289° West 313 360 14,900 -565 Descending FlightAware ADS-B
Fri 03:21:17 AM 35.7970 141.1850 289° West 309 356 14,300 -918 Descending FlightAware ADS-B
Fri 03:21:57 AM 35.8150 141.1190 289° West 301 346 13,600 -1,500 Descending FlightAware ADS-B
Fri 03:22:37 AM 35.8320 141.0590 289° West 301 346 12,300 -1,725 Descending FlightAware ADS-B
Fri 03:23:17 AM 35.8510 140.9920 289° West 289 333 11,300 -1,200 Descending FlightAware ADS-B
Fri 03:24:02 AM 35.8700 140.9230 289° West 268 308 10,600 -933 Descending FlightAware ADS-B
Fri 03:24:47 AM 35.8780 140.8600 279° West 239 275 9,900 -1,029 Descending FlightAware ADS-B
Fri 03:25:12 AM 35.8800 140.8260 274° West 238 274 9,400 -1,309 Descending FlightAware ADS-B
Fri 03:25:42 AM 35.8810 140.7870 272° West 236 272 8,700 -1,200 Descending FlightAware ADS-B
Fri 03:26:12 AM 35.8830 140.7470 274° West 218 251 8,200 -982 Descending FlightAware ADS-B
Fri 03:26:37 AM 35.8840 140.7170 272° West 203 234 7,800 -1,309 Descending FlightAware ADS-B
Fri 03:27:07 AM 35.8850 140.6840 272° West 200 230 7,000 -1,467 Descending FlightAware ADS-B
Fri 03:27:22 AM 35.8850 140.6690 270° West 200 230 6,700 -686 Descending FlightAware ADS-B
Fri 03:27:42 AM 35.8850 140.6430 270° West 205 236 6,600 -109 Descending FlightAware ADS-B
Fri 03:28:17 AM 35.8860 140.6020 272° West 202 232 6,600  Level FlightAware ADS-B
Fri 03:28:42 AM 35.8860 140.5750 270° West 198 228 6,600  Level FlightAware ADS-B
Fri 03:28:57 AM 35.8860 140.5600 270° West 198 228 6,600  Level FlightAware ADS-B
Fri 03:29:27 AM 35.9000 140.5310 301° West 232 267 6,600  Level FlightAware ADS-B
Fri 03:29:42 AM 35.9140 140.5240 338° Northwest 243 280 6,600  Level FlightAware ADS-B
Fri 03:30:07 AM 35.9430 140.5140 344° North 243 280 6,600  Level FlightAware ADS-B
Fri 03:30:37 AM 35.9770 140.5010 343° North 242 278 6,600  Level FlightAware ADS-B
Fri 03:31:02 AM 35.9980 140.4850 328° Northwest 231 266 6,600 -109 Level FlightAware ADS-B
Fri 03:31:32 AM 36.0200 140.4640 322° Northwest 211 243 6,500 -1,100 Descending FlightAware ADS-B
Fri 03:32:02 AM 36.0430 140.4380 318° Northwest 207 238 5,500 -1,800 Descending FlightAware ADS-B
Fri 03:32:12 AM 36.0460 140.4280 290° West 197 227 5,300 -1,200 Descending FlightAware ADS-B
Fri 03:32:27 AM 36.0490 140.4110 282° West 196 226 5,000 -1,309 Descending FlightAware ADS-B
Fri 03:33:07 AM 36.0480 140.3670 268° West 179 206 4,100 -1,292 Descending FlightAware ADS-B
Fri 03:33:32 AM 36.0450 140.3400 262° West 176 203 3,600 -1,067 Descending FlightAware ADS-B
Fri 03:33:52 AM 36.0420 140.3190 260° West 177 204 3,300 -400 Descending FlightAware ADS-B
Fri 03:34:17 AM 36.0360 140.2960 252° West 165 190 3,300 109 Level FlightAware ADS-B
Fri 03:34:47 AM 36.0270 140.2710 246° West 166 191 3,400  Climbing FlightAware ADS-B
Fri 03:35:02 AM 36.0200 140.2610 229° Southwest 163 188 3,300  Descending FlightAware ADS-B
Fri 03:35:27 AM 36.0060 140.2460 221° Southwest 166 191 3,400  Climbing FlightAware ADS-B
Fri 03:35:37 AM 35.9970 140.2440 190° South 165 190 3,300 -133 Descending FlightAware ADS-B
Fri 03:36:12 AM 35.9720 140.2490 171° South 167 192 3,300 -200 Level FlightAware ADS-B
Fri 03:36:37 AM 35.9540 140.2630 148° Southeast 162 186 3,100 -764 Descending FlightAware ADS-B
Fri 03:37:07 AM 35.9360 140.2770 148° Southeast 143 165 2,600 -800 Descending FlightAware ADS-B
Fri 03:37:37 AM 35.9200 140.2880 151° Southeast 147 169 2,300 -764 Descending FlightAware ADS-B
Fri 03:38:02 AM 35.9050 140.3000 147° Southeast 140 161 1,900 -667 Descending FlightAware ADS-B
Fri 03:38:22 AM 35.8960 140.3070 148° Southeast 139 160 1,800 -686 Descending FlightAware ADS-B
Fri 03:39:12 AM 35.8670 140.3290 148° Southeast 139 160 1,100 -560 Descending FlightAware ADS-B
Fri 03:39:37 AM 35.8550 140.3380 149° Southeast 139 160 1,100  Level FlightAware ADS-B

Login

Don't have an account? Register now (free) for customized features, flight alerts, and more!